Adairsville, Georgia
Current Conditions -  °F | °C
As of 9:53 PM on Friday 24 Oct 2014 (Local Time) from KRMG Reporting Station
NA  
Wind Chill: 51°   Ceiling: NA
Heat Index: 51°   Visibility: 10mi
Dew Point: 44°   Wind: 0mph
Humidity: 77%   Direction: NA
Pressure: 30.05"   Gusts: NA
Location:  34.37°N, 84.93°W
Report Text: KRMG 250153Z AUTO 00000KT 10SM 11/07 A3005 RMK AO2 SLP172 T01060067 $
Loading
Personal Weather Stations






























Interactive Weather Map
Tropical Storm Tracking
New forecast layout! Learn more

10-Day Weather Forecast

Advertisements
Track Severe Weather on mobile